Archival Weather

Abadan

Abadan, Iran (OIAA)

Report from: Monday, July 18, 2022 12:50 AM UTC
Current time: Tuesday, July 16, 2024 2:24 PM UTC

Current weather – Weather history – Daily summaries
Weather forecast

Temperature34.0°C (93.2°F)
Heat index31.8°C (89.2°F)
Dew point6.0°C (42.8°F)
Winds 10 kts (5.1 m/s, 11.5 mph) Northwest (310°)
Clouds Sky clear
Altimeter29.41 in.Hg (996 mB)
Relative humidity18 %
Density altitude2,878 ft. (877 m)
Remarks Ceiling and visibility OK
Flight conditions Visual Meteorological Conditions
Raw dataOIAA 180050Z 31010KT CAVOK 34/06 Q0996
An error has occurred. This application may no longer respond until reloaded. Reload 🗙